createdAt,value
2019-01-28T00:00:21.648Z,10.27
2019-01-28T00:06:26.335Z,9.73
2019-01-28T00:12:30.883Z,7.63
2019-01-28T00:18:35.519Z,11.27
2019-01-28T00:24:41.963Z,21.43
2019-01-28T00:30:46.682Z,12.13
2019-01-28T00:36:52.049Z,15.50
2019-01-28T00:42:56.852Z,12.00
2019-01-28T00:49:01.640Z,12.57
2019-01-28T00:55:10.723Z,19.27
2019-01-28T01:01:15.589Z,14.83
2019-01-28T01:07:21.388Z,11.33
2019-01-28T01:13:25.947Z,17.90
2019-01-28T01:19:30.716Z,9.97
2019-01-28T01:25:35.461Z,7.53
2019-01-28T01:31:40.282Z,8.30
2019-01-28T01:37:44.897Z,8.03
2019-01-28T01:43:49.446Z,9.83
2019-01-28T01:49:53.997Z,7.70
2019-01-28T01:55:58.614Z,7.67
2019-01-28T02:02:03.276Z,9.23
2019-01-28T02:08:07.971Z,6.73
2019-01-28T02:14:13.487Z,9.23
2019-01-28T02:20:18.341Z,6.43
2019-01-28T02:26:22.985Z,5.20
2019-01-28T02:32:27.591Z,11.13
2019-01-28T02:38:32.907Z,8.07
2019-01-28T02:44:37.636Z,15.93
2019-01-28T02:50:42.493Z,8.13
2019-01-28T02:56:47.189Z,10.57
2019-01-28T03:02:51.845Z,7.53
2019-01-28T03:08:56.553Z,6.97
2019-01-28T03:15:01.084Z,9.50
2019-01-28T03:21:05.907Z,12.10
2019-01-28T03:27:10.602Z,4.30
2019-01-28T03:33:15.543Z,5.80
2019-01-28T03:39:20.325Z,7.60
2019-01-28T03:45:25.011Z,9.60
2019-01-28T03:51:29.626Z,7.23
2019-01-28T03:57:34.292Z,4.00
2019-01-28T04:03:38.907Z,6.13
2019-01-28T04:09:43.978Z,4.57
2019-01-28T04:15:48.644Z,3.83
2019-01-28T04:21:53.279Z,4.00
2019-01-28T04:27:57.829Z,4.90
2019-01-28T04:34:02.374Z,4.50
2019-01-28T04:40:13.979Z,3.20
2019-01-28T04:46:18.693Z,2.67
2019-01-28T04:52:23.610Z,4.97
2019-01-28T04:58:28.487Z,3.20
2019-01-28T05:04:33.392Z,7.20
2019-01-28T05:10:38.223Z,4.03
2019-01-28T05:16:43.383Z,7.43
2019-01-28T05:22:48.113Z,6.47
2019-01-28T05:28:52.730Z,2.73
2019-01-28T05:34:57.294Z,2.97
2019-01-28T05:41:01.930Z,3.43
2019-01-28T05:47:06.544Z,3.20
2019-01-28T05:53:12.585Z,2.53
2019-01-28T05:59:17.274Z,3.87
2019-01-28T06:05:22.090Z,1.90
2019-01-28T06:11:26.910Z,4.30
2019-01-28T06:17:38.669Z,3.77
2019-01-28T06:23:38.191Z,2.00
2019-01-28T06:29:43.497Z,3.50
2019-01-28T06:35:48.111Z,2.00
2019-01-28T06:41:52.817Z,3.53
2019-01-28T06:47:59.716Z,3.53
2019-01-28T06:54:04.331Z,1.50
2019-01-28T07:00:16.376Z,2.00
2019-01-28T07:06:21.142Z,2.57
2019-01-28T07:12:26.026Z,2.83
2019-01-28T07:18:30.837Z,2.30
2019-01-28T07:24:35.391Z,2.10
2019-01-28T07:30:41.053Z,1.37
2019-01-28T07:36:45.740Z,1.40
2019-01-28T07:42:50.346Z,3.73
2019-01-28T07:48:55.272Z,1.77
2019-01-28T07:54:59.874Z,3.37
2019-01-28T08:01:04.615Z,3.37
2019-01-28T08:07:10.144Z,1.90
2019-01-28T08:13:15.007Z,7.83
2019-01-28T08:19:19.929Z,1.70
2019-01-28T08:25:24.726Z,1.53
2019-01-28T08:31:29.486Z,4.00
2019-01-28T08:37:34.013Z,1.90
2019-01-28T08:43:38.599Z,1.93
2019-01-28T08:49:43.762Z,1.83
2019-01-28T08:55:48.593Z,2.93
2019-01-28T09:01:53.785Z,2.50
2019-01-28T09:07:58.671Z,2.50
2019-01-28T09:14:03.269Z,3.33
2019-01-28T09:20:23.899Z,2.00
2019-01-28T09:26:30.356Z,3.70
2019-01-28T09:32:35.152Z,3.60
2019-01-28T09:38:40.185Z,1.87
2019-01-28T09:44:45.003Z,2.20
2019-01-28T09:50:49.762Z,2.63
2019-01-28T09:56:54.737Z,2.50
2019-01-28T10:02:59.902Z,2.20
2019-01-28T10:09:10.157Z,1.67
2019-01-28T10:15:21.814Z,1.53
2019-01-28T10:21:26.462Z,3.73
2019-01-28T10:27:31.099Z,1.57
2019-01-28T10:33:35.741Z,4.50
2019-01-28T10:39:41.103Z,1.50
2019-01-28T10:45:47.664Z,1.50
2019-01-28T10:51:52.609Z,2.10
2019-01-28T10:57:57.890Z,3.83
2019-01-28T11:04:02.596Z,1.70
2019-01-28T11:10:11.933Z,1.60
2019-01-28T11:16:16.791Z,2.03
2019-01-28T11:22:22.055Z,5.43
2019-01-28T11:28:28.381Z,2.10
2019-01-28T11:34:33.070Z,2.40
2019-01-28T11:40:37.868Z,1.70
2019-01-28T11:46:43.028Z,2.87
2019-01-28T11:52:47.704Z,7.90
2019-01-28T11:58:52.256Z,6.33
2019-01-28T12:04:56.818Z,2.60
2019-01-28T12:11:01.425Z,2.57
2019-01-28T12:17:06.433Z,2.47
2019-01-28T12:23:11.253Z,2.10
2019-01-28T12:29:16.077Z,2.00
2019-01-28T12:35:20.898Z,1.83
2019-01-28T12:41:25.656Z,1.90
2019-01-28T12:47:30.365Z,1.60
2019-01-28T12:53:35.281Z,3.37
2019-01-28T12:59:40.233Z,3.53
2019-01-28T13:05:45.031Z,3.07
2019-01-28T13:11:49.561Z,2.27
2019-01-28T13:17:57.498Z,3.83
2019-01-28T13:24:02.061Z,2.93
2019-01-28T13:30:11.453Z,2.30
2019-01-28T13:36:16.312Z,2.77
2019-01-28T13:42:20.923Z,2.03
2019-01-28T13:48:25.480Z,2.90
2019-01-28T13:54:30.103Z,2.10
2019-01-28T14:00:35.175Z,3.20
2019-01-28T14:06:42.155Z,2.47
2019-01-28T14:12:46.844Z,2.73
2019-01-28T14:18:52.425Z,4.17
2019-01-28T14:24:57.034Z,2.77
2019-01-28T14:31:01.656Z,3.57
2019-01-28T14:37:06.510Z,3.57
2019-01-28T14:43:12.202Z,12.63
2019-01-28T14:49:17.190Z,4.13
2019-01-28T14:55:24.402Z,2.23
2019-01-28T15:01:29.285Z,5.00
2019-01-28T15:07:34.170Z,5.40
2019-01-28T15:13:38.858Z,8.10
2019-01-28T15:19:50.600Z,6.10
2019-01-28T15:25:50.240Z,4.73
2019-01-28T15:31:54.779Z,3.87
2019-01-28T15:37:59.389Z,4.27
2019-01-28T15:44:04.103Z,6.83
2019-01-28T15:50:13.480Z,3.83
2019-01-28T15:56:18.095Z,6.53
2019-01-28T16:02:22.728Z,10.40
2019-01-28T16:08:27.359Z,11.20
2019-01-28T16:14:32.074Z,13.37
2019-01-28T16:20:36.841Z,9.00
2019-01-28T16:26:41.498Z,8.00
2019-01-28T16:32:46.373Z,9.87
2019-01-28T16:45:01.401Z,11.63
2019-01-28T16:51:07.298Z,8.70
2019-01-28T16:57:12.268Z,11.10
2019-01-28T17:03:17.056Z,17.77
2019-01-28T17:09:21.599Z,12.00
2019-01-28T17:15:26.446Z,15.60
2019-01-28T17:21:31.001Z,20.07
2019-01-28T17:27:36.557Z,18.60
2019-01-28T17:33:41.575Z,15.73
2019-01-28T17:39:46.309Z,20.07
2019-01-28T17:45:51.311Z,17.27
2019-01-28T17:51:55.863Z,22.17
2019-01-28T17:58:00.427Z,10.63
2019-01-28T18:04:05.276Z,8.37
2019-01-28T18:10:14.091Z,5.23
2019-01-28T18:16:19.104Z,9.90
2019-01-28T18:22:24.078Z,7.00
2019-01-28T18:28:28.968Z,5.40
2019-01-28T18:34:33.718Z,4.30
2019-01-28T18:40:38.382Z,6.30
2019-01-28T18:46:43.425Z,9.77
2019-01-28T18:52:48.855Z,3.50
2019-01-28T18:58:53.493Z,1.93
2019-01-28T19:04:58.402Z,7.77
2019-01-28T19:11:04.750Z,5.33
2019-01-28T19:17:13.609Z,2.93
2019-01-28T19:23:18.254Z,4.37
2019-01-28T19:29:24.166Z,3.13
2019-01-28T19:35:28.966Z,4.43
2019-01-28T19:41:33.717Z,5.47
2019-01-28T19:47:38.300Z,3.60
2019-01-28T19:53:43.320Z,4.90
2019-01-28T19:59:48.830Z,4.13
2019-01-28T20:05:53.590Z,4.37
2019-01-28T20:11:58.478Z,2.67
2019-01-28T20:18:03.350Z,3.57
2019-01-28T20:24:08.042Z,3.67
2019-01-28T20:30:28.018Z,2.53
2019-01-28T20:36:32.659Z,3.17
2019-01-28T20:42:37.496Z,4.67
2019-01-28T20:48:42.408Z,4.77
2019-01-28T20:54:47.091Z,13.90
2019-01-28T21:00:51.707Z,5.30
2019-01-28T21:06:56.532Z,5.37
2019-01-28T21:13:01.208Z,5.80
2019-01-28T21:19:06.056Z,3.87
2019-01-28T21:25:20.900Z,3.63
2019-01-28T21:31:25.473Z,4.50
2019-01-28T21:37:30.658Z,9.73
2019-01-28T21:43:35.344Z,9.73
2019-01-28T21:49:40.475Z,12.77
2019-01-28T21:55:45.569Z,4.80
2019-01-28T22:01:53.559Z,5.67
2019-01-28T22:07:58.274Z,6.50
2019-01-28T22:14:03.274Z,7.27
2019-01-28T22:20:10.667Z,14.10
2019-01-28T22:26:16.455Z,9.00
2019-01-28T22:32:24.455Z,8.40
2019-01-28T22:38:29.069Z,6.90
2019-01-28T22:44:33.640Z,14.30
2019-01-28T22:50:38.459Z,4.07
2019-01-28T22:56:43.141Z,8.40
2019-01-28T23:02:47.823Z,5.20
2019-01-28T23:08:52.433Z,7.60
2019-01-28T23:14:57.067Z,9.90
2019-01-28T23:21:01.734Z,7.00
2019-01-28T23:27:06.427Z,6.43
2019-01-28T23:33:11.376Z,7.30
2019-01-28T23:39:16.166Z,6.03
2019-01-28T23:45:20.716Z,6.73
2019-01-28T23:51:25.386Z,7.83
2019-01-28T23:57:30.041Z,9.43
